Time;durP1;ratioP1;P1;durP2;ratioP2;P2;SDS_P1;SDS_P2;PMS_P1;PMS_P2;Temp;Humidity;BMP_temperature;BMP_pressure;BME280_temperature;BME280_humidity;BME280_pressure;Samples;Min_cycle;Max_cycle;Signal;HPM_P1;HPM_P2
2022/04/21 00:02:13;;;;;;;;;;;18.80;53.20;;;;;;5021804;28;19921;-61
2022/04/21 00:04:39;;;;;;;;;;;18.80;53.20;;;;;;5021773;28;19927;-60
2022/04/21 00:07:05;;;;;;;;;;;18.80;53.20;;;;;;5023244;28;19913;-60
2022/04/21 00:09:30;;;;;;;;;;;18.80;53.20;;;;;;5016294;28;20395;-60
2022/04/21 00:11:56;;;;;;;;;;;18.80;53.20;;;;;;5021571;28;19917;-61
2022/04/21 00:14:21;;;;;;;;;;;18.80;53.20;;;;;;5022409;28;19971;-60
2022/04/21 00:16:47;;;;;;;;;;;18.80;53.20;;;;;;5023080;28;19928;-60
2022/04/21 00:19:12;;;;;;;;;;;18.80;53.20;;;;;;5021464;28;19963;-61
2022/04/21 00:24:21;;;;;;;;;;;18.80;53.20;;;;;;5021600;28;19979;-60
2022/04/21 00:26:47;;;;;;;;;;;18.80;53.20;;;;;;5020800;28;19920;-60
2022/04/21 00:29:13;;;;;;;;;;;18.80;53.20;;;;;;5020235;28;19924;-60
2022/04/21 00:31:39;;;;;;;;;;;18.80;53.20;;;;;;5021328;28;19918;-58
2022/04/21 00:34:04;;;;;;;;;;;18.70;53.20;;;;;;5021634;28;19924;-60
2022/04/21 00:36:30;;;;;;;;;;;18.70;53.20;;;;;;5021666;28;19918;-61
2022/04/21 00:38:55;;;;;;;;;;;18.70;53.20;;;;;;5019791;28;19917;-61
2022/04/21 00:41:21;;;;;;;;;;;18.70;53.20;;;;;;5021677;28;19940;-58
2022/04/21 00:43:46;;;;;;;;;;;18.70;53.20;;;;;;5021256;28;19917;-61
2022/04/21 00:46:17;;;;;;;;;;;18.70;53.20;;;;;;5021258;28;19917;-60
2022/04/21 00:48:42;;;;;;;;;;;18.70;53.20;;;;;;5003293;28;20289;-60
2022/04/21 00:51:08;;;;;;;;;;;18.70;53.20;;;;;;5022616;28;19923;-59
2022/04/21 00:53:33;;;;;;;;;;;18.70;53.20;;;;;;5022172;28;20353;-58
2022/04/21 00:55:59;;;;;;;;;;;18.70;53.20;;;;;;5021539;28;19913;-59
2022/04/21 00:58:24;;;;;;;;;;;18.60;53.20;;;;;;5019879;28;19921;-59
2022/04/21 01:00:50;;;;;;;;;;;18.70;53.30;;;;;;5021308;28;20474;-59
2022/04/21 01:03:15;;;;;;;;;;;18.70;53.20;;;;;;5022322;28;19917;-61
2022/04/21 01:05:41;;;;;;;;;;;18.60;53.20;;;;;;5022102;28;19963;-59
2022/04/21 01:08:07;;;;;;;;;;;18.60;53.20;;;;;;5021090;28;20418;-59
2022/04/21 01:10:36;;;;;;;;;;;18.60;53.20;;;;;;5020289;28;20035;-58
2022/04/21 01:13:04;;;;;;;;;;;18.60;53.20;;;;;;5020328;28;19913;-60
2022/04/21 01:15:29;;;;;;;;;;;18.60;53.20;;;;;;5003760;28;19947;-59
2022/04/21 01:17:54;;;;;;;;;;;18.60;53.20;;;;;;5021707;28;20008;-59
2022/04/21 01:20:21;;;;;;;;;;;18.60;53.20;;;;;;5021407;28;20500;-61
2022/04/21 01:22:46;;;;;;;;;;;18.60;53.20;;;;;;4995065;28;19925;-60
2022/04/21 01:25:12;;;;;;;;;;;18.60;53.30;;;;;;5020071;28;20375;-59
2022/04/21 01:27:38;;;;;;;;;;;18.60;53.30;;;;;;5021855;28;19924;-60
2022/04/21 01:30:04;;;;;;;;;;;18.60;54.00;;;;;;5019317;28;20012;-59
2022/04/21 01:32:31;;;;;;;;;;;18.60;53.40;;;;;;5020193;28;19928;-59
2022/04/21 01:34:57;;;;;;;;;;;18.50;53.40;;;;;;5021010;28;19920;-58
2022/04/21 01:42:51;;;;;;;;;;;18.60;53.40;;;;;;5022191;28;20570;-59
2022/04/21 01:45:16;;;;;;;;;;;18.50;53.40;;;;;;5022894;28;19921;-59
2022/04/21 01:47:42;;;;;;;;;;;18.50;53.40;;;;;;5019257;28;20318;-59
2022/04/21 01:50:07;;;;;;;;;;;18.60;53.40;;;;;;5020062;28;19917;-60
2022/04/21 01:52:37;;;;;;;;;;;18.50;53.40;;;;;;5020791;28;19928;-60
2022/04/21 01:55:02;;;;;;;;;;;18.50;53.40;;;;;;5018743;28;19920;-60
2022/04/21 01:57:28;;;;;;;;;;;18.50;53.40;;;;;;5020487;28;19921;-60
2022/04/21 01:59:53;;;;;;;;;;;18.50;53.40;;;;;;5019809;28;20346;-59
2022/04/21 02:02:19;;;;;;;;;;;18.50;53.40;;;;;;5020465;28;19921;-61
2022/04/21 02:04:44;;;;;;;;;;;18.50;53.40;;;;;;5020838;28;19971;-59
2022/04/21 02:07:10;;;;;;;;;;;18.50;53.40;;;;;;5002848;28;19923;-60
2022/04/21 02:09:35;;;;;;;;;;;18.50;53.40;;;;;;5019467;28;19939;-59
2022/04/21 02:12:01;;;;;;;;;;;18.50;53.40;;;;;;5021672;28;19932;-60
2022/04/21 02:14:27;;;;;;;;;;;18.50;53.40;;;;;;5021782;28;19924;-60
2022/04/21 02:16:52;;;;;;;;;;;18.50;53.40;;;;;;5022136;28;19921;-60
2022/04/21 02:19:18;;;;;;;;;;;18.50;53.40;;;;;;5024450;28;19917;-60
2022/04/21 02:21:43;;;;;;;;;;;18.50;53.40;;;;;;5025139;28;20286;-59
2022/04/21 02:24:08;;;;;;;;;;;18.50;53.40;;;;;;5024673;28;19959;-59
2022/04/21 02:26:34;;;;;;;;;;;18.50;53.40;;;;;;5025206;28;19920;-60
2022/04/21 02:28:59;;;;;;;;;;;18.50;53.30;;;;;;5023669;28;19918;-60
2022/04/21 02:31:25;;;;;;;;;;;18.50;53.40;;;;;;5025233;28;20008;-59
2022/04/21 02:33:50;;;;;;;;;;;18.50;53.40;;;;;;5025503;28;19913;-58
2022/04/21 02:36:16;;;;;;;;;;;18.50;53.40;;;;;;5023246;28;19921;-60
2022/04/21 02:38:41;;;;;;;;;;;18.50;53.40;;;;;;5021626;28;19991;-60
2022/04/21 02:41:07;;;;;;;;;;;18.50;53.40;;;;;;5024444;28;20444;-59
2022/04/21 02:43:32;;;;;;;;;;;18.50;53.40;;;;;;5024371;28;19917;-60
2022/04/21 02:45:58;;;;;;;;;;;18.50;53.40;;;;;;5023506;28;19975;-61
2022/04/21 02:48:23;;;;;;;;;;;18.50;53.40;;;;;;5022576;28;20390;-60
2022/04/21 02:50:49;;;;;;;;;;;18.50;53.40;;;;;;5024387;28;19917;-61
2022/04/21 02:53:14;;;;;;;;;;;18.50;53.40;;;;;;5005755;28;19975;-60
2022/04/21 02:58:24;;;;;;;;;;;18.40;53.30;;;;;;5023325;28;19932;-59
2022/04/21 03:00:49;;;;;;;;;;;18.40;53.30;;;;;;5023266;28;20345;-59
2022/04/21 03:03:15;;;;;;;;;;;18.40;53.30;;;;;;5023935;28;19913;-58
2022/04/21 03:05:40;;;;;;;;;;;18.40;53.40;;;;;;5022842;28;19921;-59
2022/04/21 03:08:06;;;;;;;;;;;18.40;53.40;;;;;;5022143;28;20445;-59
2022/04/21 03:10:32;;;;;;;;;;;18.40;53.30;;;;;;5021618;28;19978;-60
2022/04/21 03:12:58;;;;;;;;;;;18.40;53.30;;;;;;5024287;28;19920;-59
2022/04/21 03:15:24;;;;;;;;;;;18.40;53.40;;;;;;5021787;28;19924;-60
2022/04/21 03:17:49;;;;;;;;;;;18.40;53.40;;;;;;5006184;28;20496;-60
2022/04/21 03:25:43;;;;;;;;;;;18.40;53.40;;;;;;5004690;28;19924;-60
2022/04/21 03:28:08;;;;;;;;;;;18.40;53.40;;;;;;5001489;28;20696;-59
2022/04/21 03:30:34;;;;;;;;;;;18.40;53.40;;;;;;5021557;28;19921;-60
2022/04/21 03:32:59;;;;;;;;;;;18.40;53.50;;;;;;5003641;28;20353;-60
2022/04/21 03:35:25;;;;;;;;;;;18.40;53.40;;;;;;5034701;28;19923;-60
2022/04/21 03:37:50;;;;;;;;;;;18.40;53.40;;;;;;5022143;28;19944;-59
2022/04/21 03:40:16;;;;;;;;;;;18.40;53.50;;;;;;5021268;28;20280;-60
2022/04/21 03:42:41;;;;;;;;;;;18.40;53.50;;;;;;5023265;28;19988;-61
2022/04/21 03:45:07;;;;;;;;;;;18.40;53.50;;;;;;5022034;28;19959;-59
2022/04/21 03:47:32;;;;;;;;;;;18.40;53.80;;;;;;5023121;28;20402;-59
2022/04/21 03:49:58;;;;;;;;;;;18.40;53.50;;;;;;5019885;28;20161;-60
2022/04/21 03:52:23;;;;;;;;;;;18.40;53.50;;;;;;5021838;28;19917;-60
2022/04/21 03:54:49;;;;;;;;;;;18.40;53.50;;;;;;5022106;28;19921;-59
2022/04/21 03:57:14;;;;;;;;;;;18.40;53.50;;;;;;5016355;28;19927;-59
2022/04/21 03:59:40;;;;;;;;;;;18.40;53.40;;;;;;5021236;28;20432;-60
2022/04/21 04:02:05;;;;;;;;;;;18.40;53.50;;;;;;5022211;28;19913;-59
2022/04/21 04:04:34;;;;;;;;;;;18.40;53.40;;;;;;5022532;28;19917;-59
2022/04/21 04:12:31;;;;;;;;;;;18.40;53.50;;;;;;5020893;28;20341;-59
2022/04/21 04:14:56;;;;;;;;;;;18.40;53.50;;;;;;5022690;28;19920;-59
2022/04/21 04:17:22;;;;;;;;;;;18.40;53.50;;;;;;5022690;28;19921;-60
2022/04/21 04:19:47;;;;;;;;;;;18.40;53.50;;;;;;5019212;28;19917;-59
2022/04/21 04:22:14;;;;;;;;;;;18.40;53.50;;;;;;5023130;28;19939;-60
2022/04/21 04:24:40;;;;;;;;;;;18.40;53.50;;;;;;5022735;28;19920;-59
2022/04/21 04:27:05;;;;;;;;;;;18.40;53.50;;;;;;5022081;28;19913;-60
2022/04/21 04:29:31;;;;;;;;;;;18.30;53.50;;;;;;5019462;28;19922;-59
2022/04/21 04:31:57;;;;;;;;;;;18.30;53.50;;;;;;5021430;28;19913;-60
2022/04/21 04:34:22;;;;;;;;;;;18.40;53.60;;;;;;5021799;28;19925;-60
2022/04/21 04:36:48;;;;;;;;;;;18.40;53.70;;;;;;5021352;28;19982;-58
2022/04/21 04:39:14;;;;;;;;;;;18.40;53.90;;;;;;5020932;28;19913;-59
2022/04/21 04:44:23;;;;;;;;;;;18.40;54.20;;;;;;5037761;28;19983;-55
2022/04/21 04:46:49;;;;;;;;;;;18.40;54.40;;;;;;5041761;28;19921;-53
2022/04/21 04:49:14;;;;;;;;;;;18.40;54.30;;;;;;5023936;28;19913;-54
2022/04/21 04:51:43;;;;;;;;;;;18.40;54.20;;;;;;5025670;28;19925;-57
2022/04/21 04:54:09;;;;;;;;;;;18.30;54.20;;;;;;5024387;28;19949;-55
2022/04/21 04:56:34;;;;;;;;;;;18.30;54.10;;;;;;5024704;28;20056;-55
2022/04/21 04:59:00;;;;;;;;;;;18.30;54.10;;;;;;5024705;28;19913;-56
2022/04/21 05:01:28;;;;;;;;;;;18.30;54.10;;;;;;5024445;28;19913;-57
2022/04/21 05:04:00;;;;;;;;;;;18.30;54.10;;;;;;5022208;28;19920;-53
2022/04/21 05:06:25;;;;;;;;;;;18.30;54.10;;;;;;5023204;28;19914;-54
2022/04/21 05:08:51;;;;;;;;;;;18.30;54.20;;;;;;5022901;28;20301;-52
2022/04/21 05:11:16;;;;;;;;;;;18.30;54.10;;;;;;5041759;22;19991;-70
2022/04/21 05:13:42;;;;;;;;;;;18.40;54.30;;;;;;5024170;28;22476;-69
2022/04/21 05:16:07;;;;;;;;;;;18.30;54.30;;;;;;5006902;28;19924;-72
2022/04/21 05:18:33;;;;;;;;;;;18.40;54.30;;;;;;5005231;28;19913;-70
2022/04/21 05:20:58;;;;;;;;;;;18.30;54.90;;;;;;4999890;28;20537;-71
2022/04/21 05:23:24;;;;;;;;;;;18.40;55.30;;;;;;4983973;28;20351;-72
2022/04/21 05:25:49;;;;;;;;;;;18.40;55.50;;;;;;4985790;28;19944;-72
2022/04/21 05:28:15;;;;;;;;;;;18.40;55.60;;;;;;5001449;28;20424;-70
2022/04/21 05:30:55;;;;;;;;;;;18.40;55.70;;;;;;5001512;28;20226;-71
2022/04/21 05:33:22;;;;;;;;;;;18.40;56.40;;;;;;5002221;28;19925;-69
2022/04/21 05:35:47;;;;;;;;;;;18.40;55.50;;;;;;4985779;28;19914;-69
2022/04/21 05:38:16;;;;;;;;;;;18.40;55.30;;;;;;5003768;28;19925;-69
2022/04/21 05:40:42;;;;;;;;;;;18.30;55.10;;;;;;5004266;28;19918;-69
2022/04/21 05:43:08;;;;;;;;;;;18.30;55.00;;;;;;4986784;28;19921;-68
2022/04/21 05:45:33;;;;;;;;;;;18.30;55.00;;;;;;5003652;28;19925;-68
2022/04/21 05:47:59;;;;;;;;;;;18.30;55.00;;;;;;5004203;28;20026;-69
2022/04/21 05:50:25;;;;;;;;;;;18.30;54.90;;;;;;5004768;28;19921;-71
2022/04/21 05:52:52;;;;;;;;;;;18.30;54.90;;;;;;4992003;28;19920;-72
2022/04/21 05:55:17;;;;;;;;;;;18.30;55.50;;;;;;5007692;28;19945;-71
2022/04/21 05:57:43;;;;;;;;;;;18.30;56.40;;;;;;5008979;28;19965;-72
2022/04/21 06:00:09;;;;;;;;;;;18.30;56.50;;;;;;5007002;28;19948;-72
2022/04/21 06:02:35;;;;;;;;;;;18.30;56.20;;;;;;4995533;28;19956;-71
2022/04/21 06:05:00;;;;;;;;;;;18.30;56.00;;;;;;5009533;28;19914;-70
2022/04/21 06:07:26;;;;;;;;;;;18.30;55.90;;;;;;5001793;28;19921;-70
2022/04/21 06:09:51;;;;;;;;;;;18.30;55.80;;;;;;5007652;28;20036;-69
2022/04/21 06:12:17;;;;;;;;;;;18.30;55.70;;;;;;5008436;28;19932;-72
2022/04/21 06:14:44;;;;;;;;;;;18.30;55.60;;;;;;5008322;28;19956;-69
2022/04/21 06:17:10;;;;;;;;;;;18.30;55.60;;;;;;5008462;28;20052;-71
2022/04/21 06:19:35;;;;;;;;;;;18.30;55.50;;;;;;5006429;28;20436;-71
2022/04/21 06:22:01;;;;;;;;;;;18.30;55.50;;;;;;5003083;28;19946;-72
2022/04/21 06:24:26;;;;;;;;;;;18.30;55.50;;;;;;4989873;28;19956;-71
2022/04/21 06:26:52;;;;;;;;;;;18.30;55.40;;;;;;5007949;28;19917;-70
2022/04/21 06:29:17;;;;;;;;;;;18.20;55.30;;;;;;5006919;28;19919;-73
2022/04/21 06:31:44;;;;;;;;;;;18.30;55.30;;;;;;5005664;28;19969;-69
2022/04/21 06:34:10;;;;;;;;;;;18.30;55.20;;;;;;4990399;28;19913;-72
2022/04/21 06:36:35;;;;;;;;;;;18.30;55.20;;;;;;4974219;28;19924;-73
2022/04/21 06:39:01;;;;;;;;;;;18.20;55.20;;;;;;5007275;28;19928;-71
2022/04/21 06:41:27;;;;;;;;;;;18.30;55.50;;;;;;5008290;28;19922;-70
2022/04/21 06:49:21;;;;;;;;;;;18.30;55.70;;;;;;5006173;28;19960;-70
2022/04/21 06:51:46;;;;;;;;;;;18.30;55.60;;;;;;5008450;28;19914;-71
2022/04/21 06:54:12;;;;;;;;;;;18.30;55.60;;;;;;5007990;28;19945;-70
2022/04/21 06:56:37;;;;;;;;;;;18.30;55.70;;;;;;5006659;28;19928;-70
2022/04/21 06:59:03;;;;;;;;;;;18.30;55.90;;;;;;5006260;28;20404;-70
2022/04/21 07:01:28;;;;;;;;;;;18.30;56.00;;;;;;5005860;28;20011;-73
2022/04/21 07:03:53;;;;;;;;;;;18.30;56.10;;;;;;5006491;28;19920;-70
2022/04/21 07:06:19;;;;;;;;;;;18.30;56.10;;;;;;4990286;28;20411;-71
2022/04/21 07:08:45;;;;;;;;;;;18.30;56.20;;;;;;5008482;28;19914;-72
2022/04/21 07:11:10;;;;;;;;;;;18.30;56.20;;;;;;5006250;28;19925;-72
2022/04/21 07:13:35;;;;;;;;;;;18.30;56.30;;;;;;5006668;28;19936;-72
2022/04/21 07:16:01;;;;;;;;;;;18.20;56.20;;;;;;5006859;28;19959;-71
2022/04/21 07:18:26;;;;;;;;;;;18.30;56.30;;;;;;5006291;28;20620;-71
2022/04/21 07:20:52;;;;;;;;;;;18.20;56.10;;;;;;5007640;28;20013;-71
2022/04/21 07:23:17;;;;;;;;;;;18.20;56.10;;;;;;5007021;28;19961;-72
2022/04/21 07:25:43;;;;;;;;;;;18.20;56.10;;;;;;4990512;28;19922;-73
2022/04/21 07:28:08;;;;;;;;;;;18.20;56.10;;;;;;5007369;28;19960;-72
2022/04/21 07:30:34;;;;;;;;;;;18.20;56.10;;;;;;5006378;28;20592;-73
2022/04/21 07:32:59;;;;;;;;;;;18.20;56.10;;;;;;5006620;28;19986;-72
2022/04/21 07:35:25;;;;;;;;;;;18.20;56.10;;;;;;5006513;28;19913;-72
2022/04/21 07:37:50;;;;;;;;;;;18.20;56.10;;;;;;5006562;28;19921;-73
2022/04/21 07:40:16;;;;;;;;;;;18.20;56.00;;;;;;5005859;28;19964;-70
2022/04/21 07:42:45;;;;;;;;;;;18.20;56.00;;;;;;5005779;28;20102;-72
2022/04/21 07:45:10;;;;;;;;;;;18.20;56.00;;;;;;5006278;28;19924;-70
2022/04/21 07:47:35;;;;;;;;;;;18.20;56.00;;;;;;5006051;28;20258;-74
2022/04/21 07:50:01;;;;;;;;;;;18.20;55.90;;;;;;5006310;28;19913;-69
2022/04/21 07:55:15;;;;;;;;;;;18.20;55.90;;;;;;4971406;28;19925;-70
2022/04/21 07:57:41;;;;;;;;;;;18.20;55.90;;;;;;4986046;28;19921;-71
2022/04/21 08:00:07;;;;;;;;;;;18.20;55.90;;;;;;5005471;28;19925;-70
2022/04/21 08:02:32;;;;;;;;;;;18.20;55.90;;;;;;5005917;28;19941;-71
2022/04/21 08:04:58;;;;;;;;;;;18.20;55.80;;;;;;5005336;28;19972;-70
2022/04/21 08:07:23;;;;;;;;;;;18.20;55.80;;;;;;5006380;28;19917;-70
2022/04/21 08:09:49;;;;;;;;;;;18.20;55.80;;;;;;5005309;28;20011;-70
2022/04/21 08:12:14;;;;;;;;;;;18.20;55.80;;;;;;5005870;28;20304;-73
2022/04/21 08:14:40;;;;;;;;;;;18.20;55.70;;;;;;5004538;28;19963;-70
2022/04/21 08:17:06;;;;;;;;;;;18.20;55.70;;;;;;5005361;28;19927;-71
2022/04/21 08:19:32;;;;;;;;;;;18.20;56.30;;;;;;5005073;28;19913;-72
2022/04/21 08:21:57;;;;;;;;;;;18.20;55.70;;;;;;5005301;28;19925;-73
2022/04/21 08:32:43;;;;;;;;;;;18.20;55.70;;;;;;5004493;28;19919;-71
2022/04/21 08:35:13;;;;;;;;;;;18.20;55.70;;;;;;5005405;28;20402;-68
2022/04/21 08:37:42;;;;;;;;;;;18.10;55.60;;;;;;5005518;28;19928;-68
2022/04/21 08:40:08;;;;;;;;;;;18.10;55.70;;;;;;4991876;28;20027;-69
2022/04/21 08:42:40;;;;;;;;;;;18.20;55.70;;;;;;4987211;28;20347;-70
2022/04/21 08:45:06;;;;;;;;;;;18.10;55.60;;;;;;5004958;28;19917;-68
2022/04/21 08:47:32;;;;;;;;;;;18.20;55.70;;;;;;4999402;28;19975;-70
2022/04/21 08:50:08;;;;;;;;;;;18.20;55.70;;;;;;4994816;28;20434;-68
2022/04/21 08:52:34;;;;;;;;;;;18.10;55.60;;;;;;4988190;28;20052;-69
2022/04/21 08:55:00;;;;;;;;;;;18.10;55.50;;;;;;5005430;28;19913;-71
2022/04/21 08:57:25;;;;;;;;;;;18.10;55.60;;;;;;5006812;28;19928;-71
2022/04/21 08:59:51;;;;;;;;;;;18.20;55.60;;;;;;5006199;28;19917;-70
2022/04/21 09:02:17;;;;;;;;;;;18.10;55.50;;;;;;4988707;28;19931;-69
2022/04/21 09:04:46;;;;;;;;;;;18.10;55.50;;;;;;4991845;28;19924;-69
2022/04/21 09:07:18;;;;;;;;;;;18.10;55.50;;;;;;5004650;28;20320;-69
2022/04/21 09:09:58;;;;;;;;;;;18.10;55.50;;;;;;5003709;28;19952;-69
2022/04/21 09:12:24;;;;;;;;;;;18.10;55.50;;;;;;4993877;28;19925;-68
2022/04/21 09:14:49;;;;;;;;;;;18.10;55.50;;;;;;5004334;28;19914;-69
2022/04/21 09:17:15;;;;;;;;;;;18.10;55.50;;;;;;5004907;28;19924;-71
2022/04/21 09:19:50;;;;;;;;;;;18.20;55.50;;;;;;5009363;28;20003;-71
2022/04/21 09:22:16;;;;;;;;;;;18.20;55.50;;;;;;4987122;28;20440;-68
2022/04/21 09:24:42;;;;;;;;;;;18.10;55.40;;;;;;5003843;28;20412;-68
2022/04/21 09:27:07;;;;;;;;;;;18.10;56.10;;;;;;5005163;28;19917;-66
2022/04/21 09:29:33;;;;;;;;;;;18.20;55.50;;;;;;5004486;28;20553;-69
2022/04/21 09:32:02;;;;;;;;;;;18.10;55.40;;;;;;4987073;28;19924;-69
2022/04/21 09:34:28;;;;;;;;;;;18.20;55.50;;;;;;5004425;28;20385;-68
2022/04/21 09:36:53;;;;;;;;;;;18.10;55.50;;;;;;5005367;28;19924;-68
2022/04/21 09:39:19;;;;;;;;;;;18.10;55.50;;;;;;5003913;28;19968;-68
2022/04/21 09:41:45;;;;;;;;;;;18.10;55.50;;;;;;5004220;28;19928;-69
2022/04/21 09:46:57;;;;;;;;;;;18.10;55.40;;;;;;5005013;28;19920;-68
2022/04/21 09:49:32;;;;;;;;;;;18.10;55.40;;;;;;5003701;28;20377;-68
2022/04/21 09:51:58;;;;;;;;;;;18.10;55.40;;;;;;4966590;28;20659;-70
2022/04/21 09:54:27;;;;;;;;;;;18.10;55.40;;;;;;4984838;28;19951;-69
2022/04/21 09:56:53;;;;;;;;;;;18.10;55.40;;;;;;5017243;28;19952;-70
2022/04/21 09:59:18;;;;;;;;;;;18.10;56.10;;;;;;5002691;28;20626;-69
2022/04/21 10:01:44;;;;;;;;;;;18.10;55.40;;;;;;5004241;28;20566;-69
2022/04/21 10:04:13;;;;;;;;;;;18.10;55.40;;;;;;4986838;28;19945;-71
2022/04/21 10:06:38;;;;;;;;;;;18.10;55.40;;;;;;4999130;28;20374;-70
2022/04/21 10:09:04;;;;;;;;;;;18.10;55.40;;;;;;5003151;28;19918;-72
2022/04/21 10:11:31;;;;;;;;;;;18.10;55.40;;;;;;5004077;28;19932;-70
2022/04/21 10:13:56;;;;;;;;;;;18.10;55.40;;;;;;4987279;28;19917;-68
2022/04/21 10:16:22;;;;;;;;;;;18.10;55.30;;;;;;5004348;28;19914;-70
2022/04/21 10:18:51;;;;;;;;;;;18.10;55.30;;;;;;5003454;28;20008;-69
2022/04/21 10:21:36;;;;;;;;;;;18.10;55.30;;;;;;4995122;28;20012;-69
2022/04/21 10:24:01;;;;;;;;;;;18.10;55.40;;;;;;5004113;28;19999;-69
2022/04/21 10:26:34;;;;;;;;;;;18.10;55.30;;;;;;5004332;28;20395;-71
2022/04/21 10:29:01;;;;;;;;;;;18.10;55.30;;;;;;5002065;28;19925;-71
2022/04/21 10:31:30;;;;;;;;;;;18.10;55.30;;;;;;4995927;28;19983;-69
2022/04/21 10:33:56;;;;;;;;;;;18.10;55.30;;;;;;5003804;28;19917;-69
2022/04/21 10:36:38;;;;;;;;;;;18.10;55.30;;;;;;5003991;28;19914;-67
2022/04/21 10:39:26;;;;;;;;;;;18.10;55.20;;;;;;5005893;28;19914;-72
2022/04/21 10:42:24;;;;;;;;;;;18.10;55.20;;;;;;5007713;28;20013;-69
2022/04/21 10:44:50;;;;;;;;;;;18.10;55.80;;;;;;4982429;28;20638;-69
2022/04/21 10:47:25;;;;;;;;;;;18.10;55.20;;;;;;4994773;28;19917;-69
2022/04/21 10:50:00;;;;;;;;;;;18.10;55.20;;;;;;5006460;28;19972;-70
2022/04/21 10:57:48;;;;;;;;;;;18.10;55.20;;;;;;5007086;28;19975;-70
2022/04/21 11:00:22;;;;;;;;;;;18.10;55.30;;;;;;5007217;28;20355;-69
2022/04/21 11:02:48;;;;;;;;;;;18.10;55.20;;;;;;5003472;28;19996;-71
2022/04/21 11:05:22;;;;;;;;;;;18.10;55.20;;;;;;5005708;28;20442;-69
2022/04/21 11:07:51;;;;;;;;;;;18.10;55.20;;;;;;4992609;28;19926;-69
2022/04/21 11:10:25;;;;;;;;;;;18.10;55.20;;;;;;4989174;28;19944;-70
2022/04/21 11:12:51;;;;;;;;;;;18.10;55.20;;;;;;5007143;28;20556;-69
2022/04/21 11:15:28;;;;;;;;;;;18.10;55.20;;;;;;5005864;28;19924;-68
2022/04/21 11:18:01;;;;;;;;;;;18.10;55.20;;;;;;5006975;28;19999;-68
2022/04/21 11:20:26;;;;;;;;;;;18.10;55.20;;;;;;4988210;28;20376;-71
2022/04/21 11:22:52;;;;;;;;;;;18.10;55.20;;;;;;5006802;28;19918;-66
2022/04/21 11:25:17;;;;;;;;;;;18.10;55.20;;;;;;5006901;28;19956;-69
2022/04/21 11:27:45;;;;;;;;;;;18.10;55.20;;;;;;4995637;28;19913;-72
2022/04/21 11:30:11;;;;;;;;;;;18.10;55.20;;;;;;4989017;28;19917;-69
2022/04/21 11:32:37;;;;;;;;;;;18.10;55.30;;;;;;4996767;28;19940;-70
2022/04/21 11:35:02;;;;;;;;;;;18.10;55.30;;;;;;5006389;28;20424;-69
2022/04/21 11:37:46;;;;;;;;;;;18.10;55.30;;;;;;5006854;28;19999;-69
2022/04/21 11:40:25;;;;;;;;;;;18.10;55.30;;;;;;5005168;28;19917;-71
2022/04/21 11:42:51;;;;;;;;;;;18.10;55.20;;;;;;5006147;28;20486;-69
2022/04/21 11:45:20;;;;;;;;;;;18.10;55.20;;;;;;5006490;28;19914;-71
2022/04/21 11:47:45;;;;;;;;;;;18.10;55.20;;;;;;5006223;28;19924;-67
2022/04/21 11:50:13;;;;;;;;;;;18.10;55.30;;;;;;5005458;28;19913;-68
2022/04/21 11:52:42;;;;;;;;;;;18.10;55.30;;;;;;5006815;28;20028;-69
2022/04/21 11:55:08;;;;;;;;;;;18.10;55.30;;;;;;4989299;28;21909;-68
2022/04/21 11:57:40;;;;;;;;;;;18.10;55.30;;;;;;5006052;28;19983;-69
2022/04/21 12:00:06;;;;;;;;;;;18.10;55.30;;;;;;5005555;28;19920;-68
2022/04/21 12:08:00;;;;;;;;;;;18.10;55.30;;;;;;5006093;28;19920;-69
2022/04/21 12:10:25;;;;;;;;;;;18.10;55.30;;;;;;5005607;28;20159;-67
2022/04/21 12:12:51;;;;;;;;;;;18.10;55.30;;;;;;4993802;28;20011;-68
2022/04/21 12:15:25;;;;;;;;;;;18.00;55.30;;;;;;5005405;28;20304;-70
2022/04/21 12:17:51;;;;;;;;;;;18.10;55.30;;;;;;5005710;28;19921;-69
2022/04/21 12:20:16;;;;;;;;;;;18.10;55.20;;;;;;4988252;28;19914;-72
2022/04/21 12:22:42;;;;;;;;;;;18.10;55.20;;;;;;5006426;28;19914;-70
2022/04/21 12:25:10;;;;;;;;;;;18.10;55.20;;;;;;5005128;28;19926;-68
2022/04/21 12:27:35;;;;;;;;;;;18.10;55.20;;;;;;5006161;28;19917;-70
2022/04/21 12:30:01;;;;;;;;;;;18.10;55.20;;;;;;4987244;28;20026;-69
2022/04/21 12:32:30;;;;;;;;;;;18.10;55.20;;;;;;5005447;28;20004;-69
2022/04/21 12:34:56;;;;;;;;;;;18.10;55.20;;;;;;5003769;28;20032;-69
2022/04/21 12:37:25;;;;;;;;;;;18.10;55.20;;;;;;5004025;28;19937;-68
2022/04/21 12:39:51;;;;;;;;;;;18.00;55.20;;;;;;5004499;28;19941;-68
2022/04/21 12:42:17;;;;;;;;;;;18.00;55.20;;;;;;5005144;28;19913;-69
2022/04/21 12:44:43;;;;;;;;;;;18.00;55.20;;;;;;5005015;28;20378;-69
2022/04/21 12:47:15;;;;;;;;;;;18.10;55.30;;;;;;5003374;28;19921;-68
2022/04/21 12:49:59;;;;;;;;;;;18.00;55.20;;;;;;5002675;28;19925;-69
2022/04/21 12:52:27;;;;;;;;;;;18.00;55.30;;;;;;5004838;28;19921;-69
2022/04/21 12:54:52;;;;;;;;;;;18.00;55.20;;;;;;5004553;28;19917;-70
2022/04/21 12:57:18;;;;;;;;;;;18.00;55.30;;;;;;5004770;28;20289;-69
2022/04/21 12:59:44;;;;;;;;;;;18.00;55.30;;;;;;5004045;28;19913;-70
2022/04/21 13:02:10;;;;;;;;;;;18.00;55.30;;;;;;5003467;28;20410;-70
2022/04/21 13:04:36;;;;;;;;;;;18.00;55.20;;;;;;5004915;28;20012;-70
2022/04/21 13:07:02;;;;;;;;;;;18.00;55.20;;;;;;5007190;28;19917;-69
2022/04/21 13:09:28;;;;;;;;;;;18.00;55.20;;;;;;4997090;28;20641;-68
2022/04/21 13:11:53;;;;;;;;;;;18.00;55.20;;;;;;5004577;28;19983;-68
2022/04/21 13:14:19;;;;;;;;;;;18.00;55.30;;;;;;5004791;28;20312;-68
2022/04/21 13:16:44;;;;;;;;;;;18.00;55.20;;;;;;5004251;28;19921;-70
2022/04/21 13:19:09;;;;;;;;;;;18.00;55.20;;;;;;4993076;28;19957;-69
2022/04/21 13:21:53;;;;;;;;;;;18.00;55.20;;;;;;5004648;28;19917;-68
2022/04/21 13:24:19;;;;;;;;;;;18.00;55.20;;;;;;5003428;28;19976;-68
2022/04/21 13:26:44;;;;;;;;;;;18.00;55.20;;;;;;5004414;28;20459;-69
2022/04/21 13:29:10;;;;;;;;;;;18.00;55.20;;;;;;5003747;28;19920;-70
2022/04/21 13:34:19;;;;;;;;;;;18.00;55.20;;;;;;5004609;28;19967;-68
2022/04/21 13:36:45;;;;;;;;;;;18.00;55.20;;;;;;5004316;28;19922;-69
2022/04/21 13:39:11;;;;;;;;;;;18.00;55.20;;;;;;5004020;28;19920;-69
2022/04/21 13:41:36;;;;;;;;;;;18.00;55.20;;;;;;5002942;28;19918;-68
2022/04/21 13:44:02;;;;;;;;;;;18.00;55.20;;;;;;5001198;28;19913;-69
2022/04/21 13:46:28;;;;;;;;;;;18.00;55.20;;;;;;5004625;28;20063;-68
2022/04/21 13:48:54;;;;;;;;;;;18.00;55.20;;;;;;4970580;28;19925;-68
2022/04/21 13:51:20;;;;;;;;;;;18.00;55.30;;;;;;5003299;28;19913;-68
2022/04/21 13:53:45;;;;;;;;;;;18.00;55.20;;;;;;5004938;28;19918;-68
2022/04/21 13:56:11;;;;;;;;;;;18.00;55.20;;;;;;5004703;28;19924;-64
2022/04/21 13:58:36;;;;;;;;;;;18.00;55.30;;;;;;4986075;28;20577;-68
2022/04/21 14:01:03;;;;;;;;;;;18.00;55.30;;;;;;5002744;28;19913;-68
2022/04/21 14:03:28;;;;;;;;;;;18.00;55.30;;;;;;5003579;28;19917;-67
2022/04/21 14:05:54;;;;;;;;;;;18.00;55.30;;;;;;5004173;28;19922;-69
2022/04/21 14:08:19;;;;;;;;;;;18.00;55.30;;;;;;4986271;28;19946;-68
2022/04/21 14:10:45;;;;;;;;;;;18.00;55.30;;;;;;4982621;28;19924;-68
2022/04/21 14:13:10;;;;;;;;;;;18.00;55.30;;;;;;5007915;28;20022;-71
2022/04/21 14:15:35;;;;;;;;;;;18.00;55.30;;;;;;5007903;28;19968;-67
2022/04/21 14:18:01;;;;;;;;;;;18.00;55.30;;;;;;5007683;28;19917;-69
2022/04/21 14:20:26;;;;;;;;;;;18.00;55.30;;;;;;5007800;28;19913;-69
2022/04/21 14:22:52;;;;;;;;;;;18.00;55.30;;;;;;5008103;28;19921;-69
2022/04/21 14:25:18;;;;;;;;;;;18.00;55.30;;;;;;5008097;28;20399;-69
2022/04/21 14:27:43;;;;;;;;;;;18.00;55.30;;;;;;5007311;28;19917;-69
2022/04/21 14:30:09;;;;;;;;;;;18.00;55.20;;;;;;5006900;28;19920;-68
2022/04/21 14:32:35;;;;;;;;;;;18.00;55.30;;;;;;5007572;28;20151;-69
2022/04/21 14:35:00;;;;;;;;;;;18.00;55.30;;;;;;5003353;28;19918;-70
2022/04/21 14:45:39;;;;;;;;;;;18.00;55.30;;;;;;5007955;28;19976;-69
2022/04/21 14:48:05;;;;;;;;;;;18.00;55.30;;;;;;5008164;28;19925;-68
2022/04/21 14:50:30;;;;;;;;;;;18.00;55.30;;;;;;4994914;28;20355;-68
2022/04/21 14:52:57;;;;;;;;;;;18.00;55.30;;;;;;5007974;28;19948;-68
2022/04/21 14:55:23;;;;;;;;;;;18.00;55.30;;;;;;5002629;28;19945;-69
2022/04/21 14:57:49;;;;;;;;;;;18.00;55.30;;;;;;4988733;28;19921;-70
2022/04/21 15:00:15;;;;;;;;;;;18.00;55.30;;;;;;5006446;28;20003;-67
2022/04/21 15:02:41;;;;;;;;;;;18.00;55.30;;;;;;5007426;28;20511;-65
2022/04/21 15:05:06;;;;;;;;;;;18.00;55.30;;;;;;5007320;28;19923;-67
2022/04/21 15:07:32;;;;;;;;;;;18.00;55.30;;;;;;4996271;28;19921;-69
2022/04/21 15:09:58;;;;;;;;;;;18.00;55.30;;;;;;4989362;28;19953;-69
2022/04/21 15:12:23;;;;;;;;;;;18.10;55.40;;;;;;5005350;28;20230;-69
2022/04/21 15:14:50;;;;;;;;;;;18.20;55.50;;;;;;5005999;28;19924;-68
2022/04/21 15:17:16;;;;;;;;;;;18.20;55.50;;;;;;4989583;28;20224;-69
2022/04/21 15:19:44;;;;;;;;;;;18.30;55.50;;;;;;4988789;28;19920;-69